createdAt,value
2019-05-01T00:02:44.065Z,55.30
2019-05-01T00:05:16.608Z,55.50
2019-05-01T00:07:43.574Z,55.80
2019-05-01T00:10:11.965Z,56.20
2019-05-01T00:12:39.052Z,56.30
2019-05-01T00:15:07.423Z,57.30
2019-05-01T00:17:34.632Z,57.60
2019-05-01T00:20:03.377Z,57.10
2019-05-01T00:22:30.478Z,57.00
2019-05-01T00:24:57.528Z,55.90
2019-05-01T00:27:24.317Z,55.40
2019-05-01T00:29:51.112Z,54.50
2019-05-01T00:32:18.058Z,54.20
2019-05-01T00:34:44.838Z,55.10
2019-05-01T00:37:11.692Z,54.50
2019-05-01T00:39:38.660Z,55.20
2019-05-01T00:42:05.464Z,55.00
2019-05-01T00:44:32.277Z,55.20
2019-05-01T00:46:59.081Z,55.20
2019-05-01T00:49:25.866Z,54.90
2019-05-01T00:51:52.654Z,55.30
2019-05-01T00:54:19.459Z,55.80
2019-05-01T00:56:51.095Z,54.90
2019-05-01T00:59:20.051Z,54.60
2019-05-01T01:02:03.998Z,54.60
2019-05-01T01:04:30.769Z,55.20
2019-05-01T01:06:57.853Z,55.60
2019-05-01T01:09:24.699Z,55.00
2019-05-01T01:11:51.826Z,55.50
2019-05-01T01:14:18.710Z,55.10
2019-05-01T01:16:45.583Z,55.60
2019-05-01T01:19:12.685Z,55.20
2019-05-01T01:21:39.714Z,56.00
2019-05-01T01:24:07.296Z,55.30
2019-05-01T01:26:34.166Z,55.00
2019-05-01T01:29:01.030Z,54.90
2019-05-01T01:31:28.140Z,55.10
2019-05-01T01:33:54.951Z,55.00
2019-05-01T01:36:21.694Z,55.10
2019-05-01T01:38:48.667Z,54.90
2019-05-01T01:41:15.756Z,54.80
2019-05-01T01:43:44.937Z,54.80
2019-05-01T01:46:12.046Z,54.70
2019-05-01T01:48:39.359Z,54.70
2019-05-01T01:51:06.248Z,55.00
2019-05-01T01:53:33.980Z,54.80
2019-05-01T01:56:00.911Z,54.60
2019-05-01T01:58:27.887Z,54.70
2019-05-01T02:00:54.932Z,54.60
2019-05-01T02:03:24.110Z,54.70
2019-05-01T02:05:51.205Z,54.80
2019-05-01T02:08:18.149Z,54.80
2019-05-01T02:10:44.966Z,54.80
2019-05-01T02:13:12.131Z,54.70
2019-05-01T02:15:38.923Z,54.80
2019-05-01T02:18:05.798Z,54.90
2019-05-01T02:20:32.532Z,54.90
2019-05-01T02:22:59.337Z,54.80
2019-05-01T02:25:27.171Z,54.60
2019-05-01T02:28:13.889Z,54.60
2019-05-01T02:30:42.620Z,54.50
2019-05-01T02:33:11.646Z,54.30
2019-05-01T02:35:38.757Z,54.50
2019-05-01T02:38:08.583Z,54.50
2019-05-01T02:40:49.473Z,54.60
2019-05-01T02:43:17.193Z,54.80
2019-05-01T02:45:48.333Z,54.40
2019-05-01T02:48:20.651Z,54.20
2019-05-01T02:50:52.447Z,54.40
2019-05-01T02:53:23.785Z,54.00
2019-05-01T02:56:10.672Z,54.20
2019-05-01T02:58:39.601Z,54.90
2019-05-01T03:01:06.752Z,54.60
2019-05-01T03:03:33.662Z,54.50
2019-05-01T03:06:01.044Z,54.40
2019-05-01T03:08:27.872Z,54.40
2019-05-01T03:10:54.668Z,54.40
2019-05-01T03:13:21.657Z,54.40
2019-05-01T03:15:50.010Z,54.30
2019-05-01T03:18:27.979Z,54.20
2019-05-01T03:21:00.400Z,54.40
2019-05-01T03:23:32.512Z,54.20
2019-05-01T03:26:00.712Z,54.10
2019-05-01T03:28:27.995Z,54.00
2019-05-01T03:30:55.177Z,53.90
2019-05-01T03:33:23.080Z,54.60
2019-05-01T03:35:50.208Z,54.90
2019-05-01T03:38:17.835Z,53.80
2019-05-01T03:40:45.512Z,54.00
2019-05-01T03:43:12.315Z,54.50
2019-05-01T03:45:40.182Z,54.60
2019-05-01T03:48:06.987Z,54.80
2019-05-01T03:50:34.180Z,54.60
2019-05-01T03:53:02.194Z,54.50
2019-05-01T03:55:29.984Z,54.50
2019-05-01T03:57:57.280Z,54.70
2019-05-01T04:00:36.364Z,53.80
2019-05-01T04:03:17.470Z,54.80
2019-05-01T04:05:44.998Z,53.90
2019-05-01T04:08:12.574Z,54.70
2019-05-01T04:10:39.768Z,54.20
2019-05-01T04:13:06.472Z,54.20
2019-05-01T04:15:34.482Z,54.30
2019-05-01T04:18:04.044Z,54.20
2019-05-01T04:20:31.440Z,54.20
2019-05-01T04:22:58.961Z,54.60
2019-05-01T04:25:25.867Z,54.40
2019-05-01T04:27:58.546Z,54.00
2019-05-01T04:30:25.902Z,53.80
2019-05-01T04:32:54.816Z,53.70
2019-05-01T04:35:23.898Z,53.70
2019-05-01T04:37:51.060Z,54.60
2019-05-01T04:40:19.382Z,54.60
2019-05-01T04:42:46.209Z,54.40
2019-05-01T04:45:13.746Z,53.90
2019-05-01T04:47:41.061Z,53.80
2019-05-01T04:50:08.600Z,53.40
2019-05-01T04:52:35.397Z,53.90
2019-05-01T04:55:04.631Z,53.90
2019-05-01T04:57:32.366Z,54.00
2019-05-01T04:59:59.947Z,54.40
2019-05-01T05:02:28.908Z,53.80
2019-05-01T05:04:56.875Z,53.40
2019-05-01T05:07:23.917Z,53.40
2019-05-01T05:09:51.402Z,54.50
2019-05-01T05:12:33.094Z,54.10
2019-05-01T05:15:01.665Z,54.10
2019-05-01T05:17:28.529Z,53.90
2019-05-01T05:19:55.510Z,53.70
2019-05-01T05:22:22.172Z,53.80
2019-05-01T05:24:50.197Z,52.90
2019-05-01T05:27:17.826Z,53.00
2019-05-01T05:29:46.395Z,54.40
2019-05-01T05:32:16.850Z,53.30
2019-05-01T05:34:46.436Z,53.40
2019-05-01T05:37:18.502Z,54.30
2019-05-01T05:39:47.876Z,54.20
2019-05-01T05:42:14.862Z,54.00
2019-05-01T05:44:43.434Z,53.30
2019-05-01T05:47:10.830Z,53.80
2019-05-01T05:49:38.272Z,54.00
2019-05-01T05:52:17.433Z,54.20
2019-05-01T05:55:01.218Z,54.00
2019-05-01T05:57:35.204Z,53.90
2019-05-01T06:00:13.298Z,53.40
2019-05-01T06:03:02.376Z,54.40
2019-05-01T06:05:34.284Z,53.70
2019-05-01T06:08:08.893Z,53.70
2019-05-01T06:10:41.373Z,53.70
2019-05-01T06:13:10.343Z,54.10
2019-05-01T06:15:41.276Z,53.70
2019-05-01T06:18:10.178Z,53.50
2019-05-01T06:20:44.511Z,53.70
2019-05-01T06:23:20.114Z,53.80
2019-05-01T06:25:48.469Z,60.50
2019-05-01T06:28:19.877Z,60.70
2019-05-01T06:30:47.073Z,60.20
2019-05-01T06:33:14.287Z,62.30
2019-05-01T06:35:41.772Z,63.90
2019-05-01T06:38:16.159Z,64.90
2019-05-01T06:40:53.021Z,66.70
2019-05-01T06:43:28.571Z,67.60
2019-05-01T06:46:10.685Z,68.40
2019-05-01T06:48:54.751Z,68.40
2019-05-01T06:51:34.141Z,67.40
2019-05-01T06:54:03.643Z,67.80
2019-05-01T06:56:31.747Z,68.00
2019-05-01T06:59:00.448Z,67.50
2019-05-01T07:01:27.975Z,67.20
2019-05-01T07:04:03.404Z,67.00
2019-05-01T07:06:26.122Z,66.20
2019-05-01T07:08:54.149Z,67.00
2019-05-01T07:11:21.778Z,67.80
2019-05-01T07:13:55.311Z,68.40
2019-05-01T07:16:21.208Z,67.10
2019-05-01T07:18:51.560Z,67.90
2019-05-01T07:21:22.908Z,67.00
2019-05-01T07:23:52.178Z,67.60
2019-05-01T07:26:17.757Z,67.80
2019-05-01T07:28:46.654Z,67.60
2019-05-01T07:31:17.718Z,66.80
2019-05-01T07:33:47.064Z,65.10
2019-05-01T07:36:16.372Z,64.00
2019-05-01T07:38:44.895Z,63.40
2019-05-01T07:41:12.440Z,61.30
2019-05-01T07:43:47.430Z,60.50
2019-05-01T07:46:18.459Z,58.50
2019-05-01T07:48:45.665Z,57.90
2019-05-01T07:51:13.478Z,57.00
2019-05-01T07:53:41.359Z,57.70
2019-05-01T07:56:09.351Z,56.90
2019-05-01T07:58:38.192Z,57.30
2019-05-01T08:01:13.136Z,56.30
2019-05-01T08:03:42.640Z,55.50
2019-05-01T08:06:08.911Z,55.30
2019-05-01T08:08:39.773Z,54.30
2019-05-01T08:11:09.881Z,54.50
2019-05-01T08:13:34.959Z,53.40
2019-05-01T08:16:07.027Z,54.30
2019-05-01T08:18:49.539Z,54.20
2019-05-01T08:21:21.268Z,54.60
2019-05-01T08:23:48.396Z,54.60
2019-05-01T08:26:15.609Z,54.40
2019-05-01T08:28:51.536Z,54.10
2019-05-01T08:31:23.111Z,53.60
2019-05-01T08:34:04.550Z,53.30
2019-05-01T08:36:32.025Z,53.60
2019-05-01T08:38:59.379Z,53.70
2019-05-01T08:41:27.090Z,53.00
2019-05-01T08:43:55.894Z,53.40
2019-05-01T08:46:31.985Z,53.90
2019-05-01T08:49:11.408Z,53.20
2019-05-01T08:51:39.059Z,53.70
2019-05-01T08:54:06.003Z,53.90
2019-05-01T08:56:33.738Z,54.00
2019-05-01T08:59:01.129Z,54.10
2019-05-01T09:01:28.267Z,54.00
2019-05-01T09:03:55.741Z,54.10
2019-05-01T09:06:34.275Z,53.60
2019-05-01T09:08:51.977Z,53.80
2019-05-01T09:11:19.208Z,53.80
2019-05-01T09:13:46.361Z,53.90
2019-05-01T09:16:13.529Z,53.40
2019-05-01T09:18:40.669Z,53.20
2019-05-01T09:21:07.824Z,53.40
2019-05-01T09:23:35.074Z,53.20
2019-05-01T09:26:14.532Z,52.80
2019-05-01T09:28:53.114Z,52.70
2019-05-01T09:31:21.942Z,52.50
2019-05-01T09:33:49.073Z,52.10
2019-05-01T09:36:16.311Z,52.30
2019-05-01T09:38:43.662Z,52.10
2019-05-01T09:41:10.808Z,52.10
2019-05-01T09:43:38.199Z,51.70
2019-05-01T09:46:05.513Z,51.60
2019-05-01T09:48:32.794Z,51.80
2019-05-01T09:51:18.793Z,51.60
2019-05-01T09:53:45.804Z,51.00
2019-05-01T09:56:14.686Z,50.10
2019-05-01T09:58:42.655Z,48.70
2019-05-01T10:01:10.418Z,48.70
2019-05-01T10:03:37.574Z,48.70
2019-05-01T10:06:05.637Z,47.90
2019-05-01T10:08:34.961Z,46.00
2019-05-01T10:11:05.103Z,46.50
2019-05-01T10:13:31.330Z,46.90
2019-05-01T10:15:58.858Z,46.10
2019-05-01T10:18:25.985Z,45.10
2019-05-01T10:20:53.883Z,46.40
2019-05-01T10:23:23.658Z,47.00
2019-05-01T10:25:52.962Z,47.80
2019-05-01T10:28:34.751Z,48.70
2019-05-01T10:31:07.117Z,49.80
2019-05-01T10:33:47.524Z,49.70
2019-05-01T10:36:30.184Z,50.60
2019-05-01T10:38:59.011Z,50.60
2019-05-01T10:41:26.534Z,51.70
2019-05-01T10:43:54.196Z,51.40
2019-05-01T10:46:25.125Z,51.30
2019-05-01T10:48:52.788Z,51.50
2019-05-01T10:51:22.413Z,51.20
2019-05-01T10:53:49.647Z,51.10
2019-05-01T10:56:17.199Z,51.60
2019-05-01T10:58:46.243Z,51.10
2019-05-01T11:01:15.487Z,50.90
2019-05-01T11:03:42.940Z,49.80
2019-05-01T11:06:10.194Z,50.40
2019-05-01T11:08:37.550Z,51.20
2019-05-01T11:11:08.379Z,52.00
2019-05-01T11:13:36.043Z,52.00
2019-05-01T11:16:03.832Z,52.30
2019-05-01T11:18:32.966Z,52.20
2019-05-01T11:21:00.558Z,52.10
2019-05-01T11:23:28.116Z,52.10
2019-05-01T11:25:55.498Z,52.00
2019-05-01T11:28:22.720Z,51.50
2019-05-01T11:30:50.380Z,51.10
2019-05-01T11:33:20.493Z,51.00
2019-05-01T11:35:49.798Z,50.70
2019-05-01T11:38:18.784Z,50.70
2019-05-01T11:40:47.977Z,50.20
2019-05-01T11:43:15.296Z,50.10
2019-05-01T11:45:43.190Z,47.80
2019-05-01T11:48:13.422Z,48.70
2019-05-01T11:50:40.765Z,48.70
2019-05-01T11:53:10.195Z,48.50
2019-05-01T11:55:40.077Z,48.40
2019-05-01T11:58:07.225Z,48.30
2019-05-01T12:00:34.368Z,48.60
2019-05-01T12:03:01.422Z,48.00
2019-05-01T12:05:28.869Z,48.30
2019-05-01T12:07:56.340Z,47.90
2019-05-01T12:10:23.727Z,47.90
2019-05-01T12:12:57.968Z,46.60
2019-05-01T12:15:25.137Z,46.20
2019-05-01T12:17:52.286Z,43.80
2019-05-01T12:20:20.585Z,44.80
2019-05-01T12:22:51.080Z,43.80
2019-05-01T12:25:16.801Z,44.30
2019-05-01T12:27:43.952Z,44.60
2019-05-01T12:30:14.872Z,44.30
2019-05-01T12:32:42.033Z,44.90
2019-05-01T12:35:09.845Z,45.30
2019-05-01T12:37:36.942Z,44.80
2019-05-01T12:40:08.154Z,44.50
2019-05-01T12:42:35.649Z,44.20
2019-05-01T12:45:10.575Z,44.60
2019-05-01T12:47:44.487Z,43.40
2019-05-01T12:50:12.696Z,44.40
2019-05-01T12:52:59.929Z,43.90
2019-05-01T12:55:33.369Z,43.80
2019-05-01T12:58:02.339Z,43.40
2019-05-01T13:00:45.889Z,43.20
2019-05-01T13:03:13.147Z,42.00
2019-05-01T13:05:40.590Z,41.40
2019-05-01T13:08:08.257Z,42.00
2019-05-01T13:10:35.970Z,40.00
2019-05-01T13:13:03.571Z,41.60
2019-05-01T13:15:31.361Z,38.10
2019-05-01T13:17:58.484Z,40.60
2019-05-01T13:20:25.731Z,40.20
2019-05-01T13:22:55.951Z,40.20
2019-05-01T13:25:23.424Z,38.50
2019-05-01T13:27:50.928Z,39.60
2019-05-01T13:30:37.059Z,39.70
2019-05-01T13:33:05.134Z,39.40
2019-05-01T13:35:32.581Z,38.80
2019-05-01T13:37:59.973Z,36.90
2019-05-01T13:40:27.489Z,37.40
2019-05-01T13:42:54.943Z,38.20
2019-05-01T13:45:22.296Z,38.20
2019-05-01T13:47:51.031Z,38.10
2019-05-01T13:50:18.746Z,38.10
2019-05-01T13:52:46.514Z,38.30
2019-05-01T13:55:14.274Z,38.90
2019-05-01T13:57:41.423Z,39.80
2019-05-01T14:00:09.837Z,39.80
2019-05-01T14:02:38.889Z,40.00
2019-05-01T14:05:06.742Z,39.50
2019-05-01T14:07:34.300Z,38.50
2019-05-01T14:10:01.848Z,40.20
2019-05-01T14:12:29.201Z,40.60
2019-05-01T14:14:56.673Z,41.40
2019-05-01T14:17:23.817Z,40.90
2019-05-01T14:19:53.104Z,42.10
2019-05-01T14:22:24.868Z,41.60
2019-05-01T14:24:54.170Z,42.30
2019-05-01T14:27:21.412Z,43.60
2019-05-01T14:29:48.939Z,45.60
2019-05-01T14:32:16.310Z,44.80
2019-05-01T14:34:43.524Z,45.90
2019-05-01T14:37:10.894Z,46.30
2019-05-01T14:39:38.150Z,47.70
2019-05-01T14:42:05.419Z,47.60
2019-05-01T14:44:36.990Z,47.40
2019-05-01T14:47:01.543Z,49.30
2019-05-01T14:49:28.656Z,47.80
2019-05-01T14:51:55.941Z,48.80
2019-05-01T14:54:23.121Z,47.40
2019-05-01T14:56:49.894Z,48.60
2019-05-01T14:59:16.940Z,50.00
2019-05-01T15:01:44.018Z,50.40
2019-05-01T15:04:11.315Z,50.80
2019-05-01T15:06:38.316Z,50.40
2019-05-01T15:09:07.158Z,51.10
2019-05-01T15:11:34.992Z,51.40
2019-05-01T15:14:17.339Z,50.90
2019-05-01T15:17:01.222Z,52.30
2019-05-01T15:19:29.899Z,53.30
2019-05-01T15:21:56.692Z,52.60
2019-05-01T15:24:23.368Z,53.60
2019-05-01T15:26:50.237Z,52.40
2019-05-01T15:29:17.148Z,53.00
2019-05-01T15:31:43.835Z,52.70
2019-05-01T15:34:10.757Z,51.10
2019-05-01T15:36:37.542Z,50.70
2019-05-01T15:39:09.850Z,49.90
2019-05-01T15:41:55.831Z,50.00
2019-05-01T15:44:27.499Z,50.30
2019-05-01T15:46:54.402Z,49.70
2019-05-01T15:49:21.277Z,49.10
2019-05-01T15:51:48.424Z,47.60
2019-05-01T15:54:15.531Z,47.60
2019-05-01T15:56:42.399Z,47.10
2019-05-01T15:59:09.090Z,47.20
2019-05-01T16:01:36.075Z,47.40
2019-05-01T16:04:03.176Z,47.60
2019-05-01T16:06:30.024Z,46.30
2019-05-01T16:08:57.267Z,45.30
2019-05-01T16:11:30.355Z,46.50
2019-05-01T16:13:57.528Z,47.70
2019-05-01T16:16:24.483Z,46.50
2019-05-01T16:18:51.264Z,46.50
2019-05-01T16:21:18.070Z,46.10
2019-05-01T16:23:44.859Z,46.70
2019-05-01T16:26:11.762Z,46.40
2019-05-01T16:28:38.538Z,46.60
2019-05-01T16:31:05.322Z,46.40
2019-05-01T16:33:35.281Z,47.30
2019-05-01T16:36:02.151Z,47.50
2019-05-01T16:38:33.859Z,47.60
2019-05-01T16:41:02.438Z,48.00
2019-05-01T16:43:29.135Z,48.00
2019-05-01T16:45:56.019Z,48.20
2019-05-01T16:48:23.039Z,48.40
2019-05-01T16:50:49.841Z,47.70
2019-05-01T16:53:16.715Z,48.40
2019-05-01T16:55:43.395Z,48.50
2019-05-01T16:58:12.171Z,48.00
2019-05-01T17:01:05.938Z,48.30
2019-05-01T17:03:42.269Z,47.70
2019-05-01T17:06:15.265Z,47.60
2019-05-01T17:08:54.131Z,48.10
2019-05-01T17:11:24.025Z,47.80
2019-05-01T17:13:50.799Z,48.00
2019-05-01T17:16:18.078Z,48.20
2019-05-01T17:18:44.963Z,48.40
2019-05-01T17:21:12.375Z,47.40
2019-05-01T17:23:39.081Z,47.10
2019-05-01T17:26:05.778Z,47.30
2019-05-01T17:28:32.896Z,45.80
2019-05-01T17:31:00.948Z,44.60
2019-05-01T17:33:29.677Z,49.30
2019-05-01T17:35:56.834Z,47.20
2019-05-01T17:38:23.631Z,46.20
2019-05-01T17:40:52.183Z,45.80
2019-05-01T17:43:19.107Z,46.30
2019-05-01T17:45:45.777Z,45.80
2019-05-01T17:48:13.005Z,45.80
2019-05-01T17:50:39.683Z,46.10
2019-05-01T17:53:06.677Z,45.20
2019-05-01T17:55:33.497Z,45.50
2019-05-01T17:58:00.274Z,46.40
2019-05-01T18:00:36.279Z,46.60
2019-05-01T18:03:05.776Z,47.40
2019-05-01T18:05:44.560Z,47.20
2019-05-01T18:08:11.378Z,48.30
2019-05-01T18:10:38.523Z,49.10
2019-05-01T18:13:07.006Z,49.70
2019-05-01T18:15:33.994Z,50.30
2019-05-01T18:18:00.900Z,50.60
2019-05-01T18:20:28.373Z,51.30
2019-05-01T18:23:00.797Z,51.60
2019-05-01T18:25:33.115Z,51.30
2019-05-01T18:28:03.387Z,51.90
2019-05-01T18:30:32.082Z,52.30
2019-05-01T18:32:58.751Z,51.90
2019-05-01T18:35:25.571Z,52.00
2019-05-01T18:38:11.446Z,52.80
2019-05-01T18:40:41.440Z,52.10
2019-05-01T18:43:08.979Z,52.90
2019-05-01T18:45:54.072Z,52.10
2019-05-01T18:48:22.407Z,52.00
2019-05-01T18:50:54.967Z,51.00
2019-05-01T18:53:19.924Z,50.90
2019-05-01T18:55:46.730Z,50.80
2019-05-01T18:58:14.475Z,49.80
2019-05-01T19:00:42.389Z,47.60
2019-05-01T19:03:09.147Z,46.80
2019-05-01T19:05:36.236Z,46.90
2019-05-01T19:08:03.888Z,47.50
2019-05-01T19:10:30.963Z,47.10
2019-05-01T19:12:57.756Z,45.80
2019-05-01T19:15:25.592Z,47.40
2019-05-01T19:17:52.856Z,48.10
2019-05-01T19:20:20.186Z,48.80
2019-05-01T19:22:46.924Z,49.50
2019-05-01T19:25:16.137Z,49.60
2019-05-01T19:27:43.229Z,49.30
2019-05-01T19:30:15.067Z,49.80
2019-05-01T19:32:40.009Z,49.70
2019-05-01T19:35:07.518Z,49.50
2019-05-01T19:37:34.620Z,49.70
2019-05-01T19:40:01.982Z,49.60
2019-05-01T19:42:29.183Z,50.40
2019-05-01T19:44:57.437Z,50.60
2019-05-01T19:47:24.582Z,50.00
2019-05-01T19:49:54.300Z,49.30
2019-05-01T19:52:20.246Z,50.50
2019-05-01T19:54:47.064Z,50.20
2019-05-01T19:57:14.325Z,50.90
2019-05-01T19:59:41.248Z,50.40
2019-05-01T20:02:09.984Z,50.20
2019-05-01T20:04:37.016Z,50.80
2019-05-01T20:07:04.658Z,50.40
2019-05-01T20:09:31.447Z,50.10
2019-05-01T20:11:58.497Z,50.90
2019-05-01T20:14:25.331Z,51.00
2019-05-01T20:16:52.451Z,50.00
2019-05-01T20:19:19.296Z,51.00
2019-05-01T20:21:46.317Z,50.00
2019-05-01T20:24:13.880Z,50.00
2019-05-01T20:26:40.689Z,50.90
2019-05-01T20:29:07.946Z,51.10
2019-05-01T20:31:35.305Z,50.90
2019-05-01T20:34:02.039Z,51.10
2019-05-01T20:36:29.528Z,51.70
2019-05-01T20:38:56.411Z,53.00
2019-05-01T20:41:23.239Z,53.90
2019-05-01T20:43:50.349Z,55.80
2019-05-01T20:46:21.238Z,55.20
2019-05-01T20:48:45.967Z,55.30
2019-05-01T20:51:12.840Z,55.90
2019-05-01T20:53:39.634Z,56.00
2019-05-01T20:56:08.267Z,55.90
2019-05-01T20:58:35.081Z,56.50
2019-05-01T21:01:03.219Z,55.90
2019-05-01T21:03:30.082Z,55.70
2019-05-01T21:06:02.916Z,56.00
2019-05-01T21:08:40.901Z,56.10
2019-05-01T21:11:10.973Z,56.20
2019-05-01T21:13:39.266Z,56.50
2019-05-01T21:16:06.384Z,55.60
2019-05-01T21:18:33.592Z,55.80
2019-05-01T21:21:00.580Z,55.90
2019-05-01T21:23:27.630Z,56.80
2019-05-01T21:25:54.697Z,56.80
2019-05-01T21:28:21.639Z,57.40
2019-05-01T21:30:48.517Z,58.20
2019-05-01T21:33:15.536Z,58.30
2019-05-01T21:35:44.353Z,58.70
2019-05-01T21:38:11.337Z,58.90
2019-05-01T21:40:41.051Z,59.60
2019-05-01T21:43:07.416Z,60.10
2019-05-01T21:45:34.362Z,59.90
2019-05-01T21:48:03.113Z,58.70
2019-05-01T21:50:30.265Z,59.50
2019-05-01T21:52:58.117Z,59.70
2019-05-01T21:55:30.369Z,59.80
2019-05-01T21:57:55.326Z,60.10
2019-05-01T22:00:24.776Z,60.30
2019-05-01T22:02:52.967Z,59.40
2019-05-01T22:05:20.090Z,59.40
2019-05-01T22:07:47.058Z,59.30
2019-05-01T22:10:14.594Z,59.70
2019-05-01T22:12:43.850Z,59.60
2019-05-01T22:15:15.454Z,59.80
2019-05-01T22:17:48.166Z,59.80
2019-05-01T22:20:17.266Z,59.60
2019-05-01T22:22:48.887Z,59.50
2019-05-01T22:25:17.627Z,59.90
2019-05-01T22:27:46.682Z,59.60
2019-05-01T22:30:24.127Z,59.70
2019-05-01T22:32:52.860Z,60.10
2019-05-01T22:35:21.467Z,59.60
2019-05-01T22:37:48.448Z,59.50
2019-05-01T22:40:17.698Z,59.40
2019-05-01T22:42:44.561Z,59.60
2019-05-01T22:45:21.596Z,59.70
2019-05-01T22:47:50.762Z,59.80
2019-05-01T22:50:18.512Z,60.20
2019-05-01T22:52:45.488Z,60.20
2019-05-01T22:55:14.338Z,60.30
2019-05-01T22:57:41.319Z,59.80
2019-05-01T23:00:15.465Z,60.20
2019-05-01T23:02:42.872Z,60.30
2019-05-01T23:05:11.196Z,60.50
2019-05-01T23:07:38.206Z,60.20
2019-05-01T23:10:07.709Z,60.10
2019-05-01T23:12:34.636Z,60.30
2019-05-01T23:15:03.321Z,59.90
2019-05-01T23:17:34.899Z,59.50
2019-05-01T23:20:07.198Z,59.80
2019-05-01T23:22:34.297Z,59.30
2019-05-01T23:25:01.142Z,59.50
2019-05-01T23:27:29.246Z,59.60
2019-05-01T23:29:57.610Z,59.40
2019-05-01T23:32:25.065Z,59.40
2019-05-01T23:34:52.201Z,59.10
2019-05-01T23:37:19.068Z,58.90
2019-05-01T23:39:46.156Z,58.70
2019-05-01T23:42:13.215Z,58.60
2019-05-01T23:44:42.929Z,58.60
2019-05-01T23:47:09.453Z,58.60
2019-05-01T23:49:36.178Z,58.40
2019-05-01T23:52:05.139Z,58.40
2019-05-01T23:54:32.437Z,58.50
2019-05-01T23:57:00.524Z,58.20
2019-05-01T23:59:27.336Z,58.30
